createdAt,value
2022-12-20T00:00:20.253Z,54.27
2022-12-20T00:02:51.078Z,63.13
2022-12-20T00:05:21.297Z,59.07
2022-12-20T00:07:51.417Z,49.53
2022-12-20T00:10:21.417Z,64.97
2022-12-20T00:12:54.056Z,59.03
2022-12-20T00:15:24.316Z,45.77
2022-12-20T00:17:54.387Z,55.97
2022-12-20T00:20:24.501Z,56.00
2022-12-20T00:22:54.739Z,57.07
2022-12-20T00:25:25.722Z,69.77
2022-12-20T00:27:58.346Z,59.63
2022-12-20T00:30:29.015Z,56.40
2022-12-20T00:32:59.052Z,58.47
2022-12-20T00:35:29.186Z,54.77
2022-12-20T00:37:59.171Z,53.53
2022-12-20T00:40:29.288Z,55.87
2022-12-20T00:43:01.885Z,56.93
2022-12-20T00:45:31.897Z,61.43
2022-12-20T00:48:01.948Z,73.57
2022-12-20T00:50:32.122Z,60.90
2022-12-20T00:53:02.203Z,52.20
2022-12-20T00:55:32.603Z,68.87
2022-12-20T00:58:05.198Z,79.83
2022-12-20T01:00:35.348Z,71.40
2022-12-20T01:03:05.533Z,56.53
2022-12-20T01:05:35.920Z,65.40
2022-12-20T01:08:07.905Z,61.07
2022-12-20T01:10:38.138Z,59.87
2022-12-20T01:13:10.799Z,53.80
2022-12-20T01:15:41.025Z,54.13
2022-12-20T01:18:11.406Z,72.40
2022-12-20T01:20:41.537Z,55.90
2022-12-20T01:23:11.548Z,64.23
2022-12-20T01:25:41.571Z,57.30
2022-12-20T01:28:14.195Z,63.77
2022-12-20T01:30:44.713Z,65.00
2022-12-20T01:33:15.487Z,53.43
2022-12-20T01:35:45.509Z,58.00
2022-12-20T01:38:15.909Z,56.40
2022-12-20T01:40:45.918Z,55.00
2022-12-20T01:43:21.435Z,62.77
2022-12-20T01:45:52.836Z,44.70
2022-12-20T01:48:29.072Z,46.23
2022-12-20T01:50:59.187Z,63.40
2022-12-20T01:53:29.408Z,47.50
2022-12-20T01:56:02.452Z,49.93
2022-12-20T01:58:38.207Z,50.00
2022-12-20T02:01:09.092Z,52.03
2022-12-20T02:03:40.065Z,45.03
2022-12-20T02:06:23.142Z,46.57
2022-12-20T02:08:57.620Z,50.50
2022-12-20T02:12:11.428Z,39.60
2022-12-20T02:15:08.244Z,40.30
2022-12-20T02:17:52.231Z,39.23
2022-12-20T02:21:01.158Z,45.33
2022-12-20T02:24:01.830Z,44.00
2022-12-20T02:27:20.522Z,47.47
2022-12-20T02:30:12.247Z,42.60
2022-12-20T02:32:51.488Z,49.53
2022-12-20T02:35:26.899Z,47.20
2022-12-20T02:38:00.928Z,45.50
2022-12-20T02:40:38.327Z,45.23
2022-12-20T02:43:34.394Z,42.33
2022-12-20T02:46:05.436Z,42.30
2022-12-20T02:48:40.057Z,52.30
2022-12-20T02:51:14.304Z,50.50
2022-12-20T02:53:45.734Z,49.53
2022-12-20T02:56:25.589Z,47.80
2022-12-20T02:59:05.057Z,39.63
2022-12-20T03:01:44.357Z,42.80
2022-12-20T03:04:15.932Z,42.73
2022-12-20T03:07:02.221Z,37.10
2022-12-20T03:09:36.235Z,46.17
2022-12-20T03:12:07.269Z,40.40
2022-12-20T03:14:40.060Z,41.07
2022-12-20T03:17:14.827Z,46.60
2022-12-20T03:19:45.486Z,44.80
2022-12-20T03:22:15.730Z,42.33
2022-12-20T03:24:45.796Z,39.13
2022-12-20T03:27:16.673Z,40.33
2022-12-20T03:29:47.368Z,42.23
2022-12-20T03:32:20.142Z,34.97
2022-12-20T03:34:50.502Z,33.60
2022-12-20T03:37:26.546Z,43.97
2022-12-20T03:39:56.658Z,39.97
2022-12-20T03:42:26.777Z,38.60
2022-12-20T03:44:56.921Z,35.27
2022-12-20T03:47:32.778Z,36.07
2022-12-20T03:50:03.137Z,33.17
2022-12-20T03:52:37.042Z,39.57
2022-12-20T03:55:10.074Z,37.70
2022-12-20T03:57:46.082Z,39.03
2022-12-20T04:00:42.233Z,37.67
2022-12-20T04:03:36.619Z,38.37
2022-12-20T04:06:07.863Z,33.03
2022-12-20T04:08:37.896Z,37.70
2022-12-20T04:11:20.341Z,34.80
2022-12-20T04:13:57.351Z,37.23
2022-12-20T04:16:30.568Z,35.03
2022-12-20T04:19:03.497Z,33.13
2022-12-20T04:21:39.556Z,31.87
2022-12-20T04:24:11.186Z,43.07
2022-12-20T04:27:05.588Z,36.77
2022-12-20T04:29:35.901Z,31.63
2022-12-20T04:32:08.243Z,46.63
2022-12-20T04:34:40.922Z,31.37
2022-12-20T04:37:11.012Z,37.80
2022-12-20T04:39:48.845Z,30.10
2022-12-20T04:42:23.328Z,34.00
2022-12-20T04:44:54.967Z,34.93
2022-12-20T04:47:28.880Z,35.97
2022-12-20T04:50:01.639Z,37.53
2022-12-20T04:52:47.936Z,33.27
2022-12-20T04:55:19.129Z,37.87
2022-12-20T04:57:49.336Z,34.77
2022-12-20T05:00:21.070Z,43.17
2022-12-20T05:02:57.509Z,40.50
2022-12-20T05:05:31.472Z,43.33
2022-12-20T05:08:01.899Z,41.73
2022-12-20T05:10:33.361Z,40.83
2022-12-20T05:13:09.194Z,38.53
2022-12-20T05:15:45.010Z,32.23
2022-12-20T05:18:16.157Z,37.57
2022-12-20T05:21:17.523Z,38.40
2022-12-20T05:24:03.454Z,51.93
2022-12-20T05:26:40.476Z,35.67
2022-12-20T05:29:11.046Z,38.30
2022-12-20T05:31:41.307Z,31.20
2022-12-20T05:34:11.700Z,43.63
2022-12-20T05:36:46.532Z,34.63
2022-12-20T05:39:16.841Z,40.03
2022-12-20T05:41:50.351Z,32.77
2022-12-20T05:44:22.349Z,33.77
2022-12-20T05:46:55.605Z,34.67
2022-12-20T05:49:30.656Z,31.77
2022-12-20T05:52:06.578Z,44.70
2022-12-20T05:54:38.317Z,32.33
2022-12-20T05:57:16.219Z,34.83
2022-12-20T05:59:46.559Z,33.37
2022-12-20T06:02:22.383Z,39.37
2022-12-20T06:04:59.221Z,43.40
2022-12-20T06:07:32.239Z,39.30
2022-12-20T06:10:03.431Z,44.20
2022-12-20T06:12:47.288Z,41.90
2022-12-20T06:15:17.523Z,47.33
2022-12-20T06:17:48.097Z,38.43
2022-12-20T06:20:19.119Z,35.70
2022-12-20T06:22:54.760Z,40.30
2022-12-20T06:25:25.054Z,40.40
2022-12-20T06:27:56.252Z,36.03
2022-12-20T06:30:33.570Z,40.77
2022-12-20T06:33:21.366Z,40.10
2022-12-20T06:35:53.704Z,41.70
2022-12-20T06:38:29.349Z,46.60
2022-12-20T06:40:59.494Z,38.57
2022-12-20T06:43:29.628Z,32.87
2022-12-20T06:45:59.984Z,49.80
2022-12-20T06:48:30.113Z,42.20
2022-12-20T06:51:00.207Z,41.10
2022-12-20T06:53:34.023Z,44.70
2022-12-20T06:56:04.213Z,39.10
2022-12-20T06:58:35.541Z,36.77
2022-12-20T07:01:06.203Z,30.40
2022-12-20T07:03:36.815Z,30.07
2022-12-20T07:06:07.468Z,37.87
2022-12-20T07:08:40.225Z,37.80
2022-12-20T07:11:12.011Z,38.17
2022-12-20T07:13:42.384Z,34.20
2022-12-20T07:16:12.510Z,36.87
2022-12-20T07:18:42.610Z,40.80
2022-12-20T07:21:16.810Z,39.90
2022-12-20T07:23:50.230Z,43.73
2022-12-20T07:26:20.348Z,40.97
2022-12-20T07:28:50.538Z,35.07
2022-12-20T07:31:20.663Z,46.03
2022-12-20T07:33:50.826Z,33.33
2022-12-20T07:36:21.088Z,43.60
2022-12-20T07:38:53.814Z,40.77
2022-12-20T07:41:25.218Z,37.93
2022-12-20T07:43:55.323Z,45.77
2022-12-20T07:46:25.581Z,34.43
2022-12-20T07:48:56.358Z,32.10
2022-12-20T07:51:32.623Z,37.13
2022-12-20T07:54:09.418Z,37.90
2022-12-20T07:56:46.008Z,37.30
2022-12-20T07:59:21.631Z,36.47
2022-12-20T08:01:52.671Z,37.90
2022-12-20T08:04:29.188Z,40.17
2022-12-20T08:07:03.961Z,34.80
2022-12-20T08:09:44.385Z,33.93
2022-12-20T08:12:18.775Z,39.00
2022-12-20T08:14:52.508Z,33.43
2022-12-20T08:17:22.637Z,34.13
2022-12-20T08:19:53.389Z,32.40
2022-12-20T08:22:23.903Z,33.53
2022-12-20T08:24:56.620Z,33.40
2022-12-20T08:27:26.879Z,29.23
2022-12-20T08:29:57.134Z,33.77
2022-12-20T08:32:27.257Z,35.30
2022-12-20T08:34:57.534Z,46.73
2022-12-20T08:37:27.617Z,29.80
2022-12-20T08:40:00.901Z,32.70
2022-12-20T08:42:31.551Z,30.97
2022-12-20T08:45:01.624Z,35.87
2022-12-20T08:47:32.991Z,35.40
2022-12-20T08:50:03.408Z,33.03
2022-12-20T08:52:33.764Z,35.47
2022-12-20T08:55:06.732Z,30.90
2022-12-20T08:57:36.898Z,34.97
2022-12-20T09:00:09.121Z,34.50
2022-12-20T09:02:41.474Z,34.73
2022-12-20T09:05:12.848Z,33.20
2022-12-20T09:07:42.889Z,25.70
2022-12-20T09:10:16.338Z,27.60
2022-12-20T09:12:46.476Z,25.47
2022-12-20T09:15:16.942Z,28.33
2022-12-20T09:17:47.269Z,30.30
2022-12-20T09:20:17.980Z,35.03
2022-12-20T09:22:47.973Z,26.30
2022-12-20T09:25:20.595Z,22.57
2022-12-20T09:27:50.911Z,27.10
2022-12-20T09:30:21.439Z,23.40
2022-12-20T09:32:51.519Z,31.27
2022-12-20T09:35:23.507Z,26.30
2022-12-20T09:37:53.695Z,26.97
2022-12-20T09:40:33.279Z,31.57
2022-12-20T09:43:04.225Z,28.27
2022-12-20T09:45:39.472Z,29.23
2022-12-20T09:48:16.403Z,32.40
2022-12-20T09:51:01.379Z,30.13
2022-12-20T09:53:42.289Z,30.70
2022-12-20T09:56:20.417Z,29.40
2022-12-20T09:59:04.790Z,27.83
2022-12-20T10:01:39.919Z,23.20
2022-12-20T10:04:22.398Z,26.30
2022-12-20T10:07:13.261Z,28.63
2022-12-20T10:10:20.884Z,25.13
2022-12-20T10:13:09.383Z,25.63
2022-12-20T10:15:47.686Z,24.70
2022-12-20T10:18:38.416Z,23.03
2022-12-20T10:21:23.729Z,34.37
2022-12-20T10:24:04.253Z,22.50
2022-12-20T10:26:36.972Z,22.30
2022-12-20T10:29:09.795Z,28.50
2022-12-20T10:31:41.118Z,23.93
2022-12-20T10:34:11.264Z,31.63
2022-12-20T10:36:42.069Z,30.37
2022-12-20T10:39:13.145Z,27.07
2022-12-20T10:41:53.300Z,32.10
2022-12-20T10:44:29.894Z,25.00
2022-12-20T10:47:02.441Z,36.30
2022-12-20T10:49:36.307Z,27.73
2022-12-20T10:52:17.632Z,28.70
2022-12-20T10:54:49.314Z,27.47
2022-12-20T10:57:25.814Z,27.20
2022-12-20T11:00:02.061Z,29.80
2022-12-20T11:02:40.825Z,27.47
2022-12-20T11:05:27.849Z,32.63
2022-12-20T11:10:54.039Z,31.57
2022-12-20T11:13:29.451Z,37.47
2022-12-20T11:16:02.307Z,32.00
2022-12-20T11:18:47.824Z,25.37
2022-12-20T11:21:34.223Z,29.33
2022-12-20T11:24:17.141Z,29.43
2022-12-20T11:27:19.249Z,31.57
2022-12-20T11:30:11.338Z,26.80
2022-12-20T11:33:34.462Z,18.87
2022-12-20T11:36:13.980Z,24.80
2022-12-20T11:38:49.624Z,24.90
2022-12-20T11:41:33.549Z,34.30
2022-12-20T11:44:25.940Z,28.77
2022-12-20T11:47:25.069Z,26.23
2022-12-20T11:50:28.793Z,30.37
2022-12-20T11:53:05.128Z,31.40
2022-12-20T11:55:41.838Z,30.53
2022-12-20T11:58:22.052Z,26.87
2022-12-20T12:01:01.589Z,30.07
2022-12-20T12:03:37.463Z,31.40
2022-12-20T12:06:19.659Z,25.27
2022-12-20T12:08:57.404Z,29.13
2022-12-20T12:14:39.248Z,35.97
2022-12-20T12:17:20.469Z,26.03
2022-12-20T12:19:57.196Z,31.77
2022-12-20T12:22:37.581Z,24.27
2022-12-20T12:25:17.100Z,31.80
2022-12-20T12:27:47.618Z,30.40
2022-12-20T12:30:20.167Z,30.73
2022-12-20T12:32:58.364Z,26.43
2022-12-20T12:36:18.029Z,28.60
2022-12-20T12:39:34.601Z,40.77
2022-12-20T12:42:50.741Z,26.00
2022-12-20T12:45:29.171Z,27.37
2022-12-20T12:48:08.047Z,27.27
2022-12-20T12:50:45.619Z,30.07
2022-12-20T12:53:22.194Z,27.80
2022-12-20T12:56:12.674Z,30.80
2022-12-20T12:58:49.222Z,25.30
2022-12-20T13:01:54.030Z,31.50
2022-12-20T13:04:31.665Z,33.30
2022-12-20T13:07:27.575Z,35.67
2022-12-20T13:09:57.942Z,45.37
2022-12-20T13:12:59.996Z,42.87
2022-12-20T13:16:27.410Z,37.50
2022-12-20T13:19:17.806Z,45.73
2022-12-20T13:21:49.334Z,42.50
2022-12-20T13:24:57.810Z,35.23
2022-12-20T13:27:40.868Z,38.23
2022-12-20T13:30:33.533Z,36.47
2022-12-20T13:33:41.922Z,33.83
2022-12-20T13:36:37.364Z,29.90
2022-12-20T13:39:42.948Z,36.00
2022-12-20T13:42:40.257Z,34.57
2022-12-20T13:45:17.252Z,33.70
2022-12-20T13:47:58.692Z,32.40
2022-12-20T13:50:38.760Z,29.40
2022-12-20T13:53:18.777Z,31.00
2022-12-20T13:55:50.259Z,31.23
2022-12-20T13:58:23.876Z,34.30
2022-12-20T14:00:56.175Z,30.37
2022-12-20T14:03:32.023Z,28.27
2022-12-20T14:06:05.696Z,30.43
2022-12-20T14:08:40.314Z,27.63
2022-12-20T14:11:15.473Z,29.97
2022-12-20T14:13:45.888Z,24.40
2022-12-20T14:16:20.320Z,27.67
2022-12-20T14:19:04.700Z,25.20
2022-12-20T14:21:41.307Z,27.37
2022-12-20T14:24:20.085Z,27.17
2022-12-20T14:26:54.225Z,25.37
2022-12-20T14:29:33.924Z,31.10
2022-12-20T14:32:03.961Z,29.40
2022-12-20T14:34:41.973Z,27.70
2022-12-20T14:37:32.493Z,29.20
2022-12-20T14:40:07.613Z,30.50
2022-12-20T14:42:40.584Z,29.37
2022-12-20T14:45:28.402Z,38.07
2022-12-20T14:48:05.806Z,28.63
2022-12-20T14:50:41.247Z,33.17
2022-12-20T14:53:22.708Z,37.73
2022-12-20T14:55:52.999Z,33.40
2022-12-20T14:58:30.151Z,30.30
2022-12-20T15:01:03.961Z,35.90
2022-12-20T15:03:34.188Z,33.00
2022-12-20T15:06:07.616Z,27.67
2022-12-20T15:08:40.845Z,33.63
2022-12-20T15:11:24.261Z,25.90
2022-12-20T15:13:59.151Z,27.13
2022-12-20T15:16:31.896Z,35.13
2022-12-20T15:19:04.884Z,28.80
2022-12-20T15:21:43.077Z,25.43
2022-12-20T15:24:18.742Z,29.93
2022-12-20T15:26:49.239Z,30.70
2022-12-20T15:29:20.931Z,37.67
2022-12-20T15:31:52.495Z,27.47
2022-12-20T15:34:31.653Z,24.63
2022-12-20T15:37:06.489Z,26.93
2022-12-20T15:39:37.773Z,35.10
2022-12-20T15:42:10.340Z,30.83
2022-12-20T15:44:41.012Z,32.60
2022-12-20T15:47:15.360Z,36.03
2022-12-20T15:49:50.092Z,25.90
2022-12-20T15:52:26.493Z,30.23
2022-12-20T15:54:56.557Z,27.30
2022-12-20T15:57:28.807Z,26.27
2022-12-20T16:00:01.734Z,26.00
2022-12-20T16:02:41.906Z,28.27
2022-12-20T16:05:15.253Z,28.47
2022-12-20T16:07:47.913Z,29.90
2022-12-20T16:10:18.627Z,27.93
2022-12-20T16:12:49.144Z,38.40
2022-12-20T16:15:25.878Z,36.00
2022-12-20T16:17:56.102Z,36.53
2022-12-20T16:20:27.728Z,30.90
2022-12-20T16:23:00.400Z,27.90
2022-12-20T16:25:35.163Z,27.57
2022-12-20T16:28:06.083Z,31.70
2022-12-20T16:30:36.109Z,34.20
2022-12-20T16:33:08.594Z,26.97
2022-12-20T16:35:40.125Z,31.90
2022-12-20T16:38:12.766Z,30.60
2022-12-20T16:40:43.367Z,35.53
2022-12-20T16:43:18.637Z,25.60
2022-12-20T16:45:48.705Z,35.03
2022-12-20T16:48:18.891Z,39.90
2022-12-20T16:50:48.972Z,40.47
2022-12-20T16:53:21.637Z,47.70
2022-12-20T16:55:51.787Z,41.60
2022-12-20T16:58:23.722Z,35.70
2022-12-20T17:00:59.948Z,45.10
2022-12-20T17:03:30.103Z,41.20
2022-12-20T17:06:00.180Z,39.40
2022-12-20T17:11:23.551Z,44.70
2022-12-20T17:13:56.628Z,36.93
2022-12-20T17:16:28.091Z,39.37
2022-12-20T17:19:00.320Z,37.40
2022-12-20T17:24:26.196Z,37.33
2022-12-20T17:26:56.352Z,38.30
2022-12-20T17:29:26.430Z,40.83
2022-12-20T17:31:56.572Z,41.20
2022-12-20T17:34:29.301Z,55.50
2022-12-20T17:37:01.354Z,48.70
2022-12-20T17:39:33.937Z,39.10
2022-12-20T17:42:03.920Z,50.20
2022-12-20T17:44:34.144Z,50.13
2022-12-20T17:47:04.191Z,44.13
2022-12-20T17:49:34.253Z,48.73
2022-12-20T17:52:04.332Z,46.53
2022-12-20T17:54:40.282Z,45.43
2022-12-20T17:57:17.076Z,37.77
2022-12-20T17:59:47.518Z,44.20
2022-12-20T18:02:27.463Z,49.43
2022-12-20T18:04:57.798Z,43.50
2022-12-20T18:07:28.429Z,42.23
2022-12-20T18:10:01.004Z,55.30
2022-12-20T18:12:37.058Z,45.10
2022-12-20T18:15:10.279Z,46.37
2022-12-20T18:17:40.632Z,41.10
2022-12-20T18:20:13.191Z,48.83
2022-12-20T18:22:43.676Z,50.80
2022-12-20T18:25:18.327Z,43.00
2022-12-20T18:27:48.484Z,37.77
2022-12-20T18:30:18.710Z,42.60
2022-12-20T18:32:48.734Z,37.60
2022-12-20T18:35:19.077Z,40.03
2022-12-20T18:37:49.123Z,41.60
2022-12-20T18:40:22.125Z,40.20
2022-12-20T18:42:59.740Z,52.83
2022-12-20T18:45:37.033Z,45.37
2022-12-20T18:48:07.369Z,47.07
2022-12-20T18:50:39.077Z,48.47
2022-12-20T18:53:09.211Z,48.87
2022-12-20T18:55:42.776Z,68.13
2022-12-20T18:58:14.370Z,56.00
2022-12-20T19:00:44.628Z,45.87
2022-12-20T19:03:14.814Z,43.10
2022-12-20T19:05:45.010Z,51.10
2022-12-20T19:08:14.997Z,49.57
2022-12-20T19:10:47.652Z,43.50
2022-12-20T19:13:18.642Z,41.90
2022-12-20T19:15:49.950Z,40.60
2022-12-20T19:18:19.953Z,50.27
2022-12-20T19:20:49.944Z,48.37
2022-12-20T19:23:20.781Z,57.87
2022-12-20T19:25:53.507Z,68.30
2022-12-20T19:28:24.045Z,51.60
2022-12-20T19:30:54.132Z,42.43
2022-12-20T19:33:24.265Z,39.10
2022-12-20T19:35:56.098Z,47.23
2022-12-20T19:38:26.514Z,48.87
2022-12-20T19:40:59.112Z,59.43
2022-12-20T19:43:29.120Z,49.03
2022-12-20T19:46:00.189Z,43.93
2022-12-20T19:48:30.413Z,35.97
2022-12-20T19:51:05.073Z,34.60
2022-12-20T19:53:35.793Z,28.07
2022-12-20T19:56:10.473Z,34.50
2022-12-20T19:58:41.522Z,30.20
2022-12-20T20:01:12.887Z,29.23
2022-12-20T20:03:43.020Z,33.80
2022-12-20T20:06:13.423Z,32.03
2022-12-20T20:08:44.831Z,28.40
2022-12-20T20:11:18.986Z,32.47
2022-12-20T20:13:49.961Z,32.60
2022-12-20T20:16:22.884Z,37.33
2022-12-20T20:18:53.881Z,29.40
2022-12-20T20:21:26.207Z,33.43
2022-12-20T20:23:58.153Z,27.23
2022-12-20T20:26:31.839Z,34.30
2022-12-20T20:29:04.331Z,32.87
2022-12-20T20:31:34.995Z,36.17
2022-12-20T20:34:05.747Z,28.20
2022-12-20T20:36:35.858Z,35.80
2022-12-20T20:39:06.692Z,32.40
2022-12-20T20:41:39.261Z,34.20
2022-12-20T20:44:09.715Z,24.77
2022-12-20T20:46:39.963Z,26.43
2022-12-20T20:49:10.047Z,30.77
2022-12-20T20:51:40.074Z,33.67
2022-12-20T20:54:10.552Z,35.03
2022-12-20T20:56:43.348Z,34.47
2022-12-20T20:59:17.850Z,33.47
2022-12-20T21:01:48.481Z,31.37
2022-12-20T21:04:18.776Z,33.93
2022-12-20T21:06:48.838Z,36.87
2022-12-20T21:09:18.962Z,37.17
2022-12-20T21:11:51.641Z,30.77
2022-12-20T21:14:43.303Z,36.87
2022-12-20T21:17:12.099Z,48.73
2022-12-20T21:19:42.083Z,31.77
2022-12-20T21:22:12.064Z,33.73
2022-12-20T21:24:42.161Z,35.00
2022-12-20T21:27:15.492Z,38.47
2022-12-20T21:29:45.575Z,43.63
2022-12-20T21:32:15.583Z,31.23
2022-12-20T21:34:45.595Z,36.53
2022-12-20T21:37:15.761Z,35.33
2022-12-20T21:39:45.744Z,32.73
2022-12-20T21:42:18.445Z,37.07
2022-12-20T21:44:48.510Z,36.73
2022-12-20T21:47:18.505Z,34.47
2022-12-20T21:49:48.769Z,39.97
2022-12-20T21:52:19.038Z,36.40
2022-12-20T21:54:49.205Z,37.57
2022-12-20T21:57:21.786Z,35.07
2022-12-20T21:59:51.820Z,40.60
2022-12-20T22:02:21.903Z,31.27
2022-12-20T22:04:52.114Z,39.80
2022-12-20T22:07:22.089Z,35.13
2022-12-20T22:09:52.076Z,34.57
2022-12-20T22:12:24.639Z,41.43
2022-12-20T22:14:54.677Z,35.70
2022-12-20T22:17:24.679Z,40.70
2022-12-20T22:19:54.670Z,34.70
2022-12-20T22:22:24.657Z,39.17
2022-12-20T22:24:54.828Z,35.47
2022-12-20T22:27:27.551Z,45.07
2022-12-20T22:29:57.529Z,44.77
2022-12-20T22:32:27.663Z,35.07
2022-12-20T22:34:57.724Z,33.07
2022-12-20T22:37:28.041Z,38.40
2022-12-20T22:39:58.118Z,37.27
2022-12-20T22:42:30.974Z,36.10
2022-12-20T22:45:00.979Z,29.43
2022-12-20T22:47:31.021Z,34.27
2022-12-20T22:50:00.995Z,26.67
2022-12-20T22:52:31.038Z,24.43
2022-12-20T22:55:01.006Z,29.67
2022-12-20T22:57:34.070Z,31.10
2022-12-20T23:00:04.720Z,32.13
2022-12-20T23:02:35.028Z,28.90
2022-12-20T23:05:05.223Z,28.30
2022-12-20T23:07:35.384Z,31.70
2022-12-20T23:10:25.710Z,29.33
2022-12-20T23:13:10.847Z,29.63
2022-12-20T23:15:43.721Z,31.43
2022-12-20T23:18:13.714Z,34.13
2022-12-20T23:20:56.194Z,28.00
2022-12-20T23:23:26.282Z,36.03
2022-12-20T23:25:56.252Z,28.83
2022-12-20T23:28:29.083Z,27.00
2022-12-20T23:30:59.086Z,27.93
2022-12-20T23:33:29.177Z,26.43
2022-12-20T23:36:00.264Z,32.60
2022-12-20T23:38:30.548Z,27.70
2022-12-20T23:41:00.608Z,27.70
2022-12-20T23:43:35.130Z,31.10
2022-12-20T23:46:07.739Z,33.53
2022-12-20T23:48:37.827Z,29.47
2022-12-20T23:51:08.518Z,27.20
2022-12-20T23:53:39.346Z,29.23
2022-12-20T23:56:14.993Z,28.60
2022-12-20T23:58:48.755Z,32.27
